sensor_id;sensor_type;location;lat;lon;timestamp;temperature;humidity
702;DHT22;334;48.808;9.222;2023-04-01T00:00:29;11.60;1.00
702;DHT22;334;48.808;9.222;2023-04-01T00:01:31;11.60;1.00
702;DHT22;334;48.808;9.222;2023-04-01T00:02:33;11.60;1.00
702;DHT22;334;48.808;9.222;2023-04-01T00:03:35;11.60;1.00
702;DHT22;334;48.808;9.222;2023-04-01T00:04:37;11.60;1.00
702;DHT22;334;48.808;9.222;2023-04-01T00:05:39;11.60;1.00
702;DHT22;334;48.808;9.222;2023-04-01T00:06:40;11.60;1.00
702;DHT22;334;48.808;9.222;2023-04-01T00:07:43;11.60;1.00
702;DHT22;334;48.808;9.222;2023-04-01T00:08:45;11.50;1.00
702;DHT22;334;48.808;9.222;2023-04-01T00:09:48;11.50;1.00
702;DHT22;334;48.808;9.222;2023-04-01T00:10:53;11.60;1.00
702;DHT22;334;48.808;9.222;2023-04-01T00:11:55;11.60;1.00
702;DHT22;334;48.808;9.222;2023-04-01T00:12:57;11.50;1.00
702;DHT22;334;48.808;9.222;2023-04-01T00:13:59;11.60;1.00
702;DHT22;334;48.808;9.222;2023-04-01T00:15:01;11.60;1.00
702;DHT22;334;48.808;9.222;2023-04-01T00:16:03;11.60;1.00
702;DHT22;334;48.808;9.222;2023-04-01T00:17:21;11.60;1.00
702;DHT22;334;48.808;9.222;2023-04-01T00:18:23;11.60;1.00
702;DHT22;334;48.808;9.222;2023-04-01T00:19:26;11.60;1.00
702;DHT22;334;48.808;9.222;2023-04-01T00:20:29;11.60;1.00
702;DHT22;334;48.808;9.222;2023-04-01T00:21:31;11.60;1.00
702;DHT22;334;48.808;9.222;2023-04-01T00:22:33;11.60;1.00
702;DHT22;334;48.808;9.222;2023-04-01T00:23:35;11.60;1.00
702;DHT22;334;48.808;9.222;2023-04-01T00:24:39;11.60;1.00
702;DHT22;334;48.808;9.222;2023-04-01T00:25:41;11.60;1.00
702;DHT22;334;48.808;9.222;2023-04-01T00:26:44;11.60;1.00
702;DHT22;334;48.808;9.222;2023-04-01T00:27:49;11.60;1.00
702;DHT22;334;48.808;9.222;2023-04-01T00:28:51;11.60;1.00
702;DHT22;334;48.808;9.222;2023-04-01T00:29:53;11.60;1.00
702;DHT22;334;48.808;9.222;2023-04-01T00:30:55;11.60;1.00
702;DHT22;334;48.808;9.222;2023-04-01T00:31:57;11.70;1.00
702;DHT22;334;48.808;9.222;2023-04-01T00:32:59;11.70;1.00
702;DHT22;334;48.808;9.222;2023-04-01T00:34:01;11.70;1.00
702;DHT22;334;48.808;9.222;2023-04-01T00:35:04;11.70;1.00
702;DHT22;334;48.808;9.222;2023-04-01T00:36:14;11.70;1.00
702;DHT22;334;48.808;9.222;2023-04-01T00:37:17;11.70;1.00
702;DHT22;334;48.808;9.222;2023-04-01T00:38:18;11.70;1.00
702;DHT22;334;48.808;9.222;2023-04-01T00:39:22;11.70;1.00
702;DHT22;334;48.808;9.222;2023-04-01T00:40:33;11.70;1.00
702;DHT22;334;48.808;9.222;2023-04-01T00:41:36;11.70;1.00
702;DHT22;334;48.808;9.222;2023-04-01T00:42:37;11.70;1.00
702;DHT22;334;48.808;9.222;2023-04-01T00:43:39;11.70;1.00
702;DHT22;334;48.808;9.222;2023-04-01T00:44:42;11.70;1.00
702;DHT22;334;48.808;9.222;2023-04-01T00:45:45;11.70;1.00
702;DHT22;334;48.808;9.222;2023-04-01T00:46:48;11.60;1.00
702;DHT22;334;48.808;9.222;2023-04-01T00:47:51;11.60;1.00
702;DHT22;334;48.808;9.222;2023-04-01T00:48:55;11.70;1.00
702;DHT22;334;48.808;9.222;2023-04-01T00:49:57;11.70;1.00
702;DHT22;334;48.808;9.222;2023-04-01T00:51:18;11.70;1.00
702;DHT22;334;48.808;9.222;2023-04-01T00:52:23;11.70;1.00
702;DHT22;334;48.808;9.222;2023-04-01T00:53:28;11.70;1.00
702;DHT22;334;48.808;9.222;2023-04-01T00:54:32;11.70;1.00
702;DHT22;334;48.808;9.222;2023-04-01T00:55:39;11.70;1.00
702;DHT22;334;48.808;9.222;2023-04-01T00:56:46;11.70;1.00
702;DHT22;334;48.808;9.222;2023-04-01T00:57:53;11.70;1.00
702;DHT22;334;48.808;9.222;2023-04-01T00:58:59;11.80;1.00
702;DHT22;334;48.808;9.222;2023-04-01T01:00:07;11.70;1.00
702;DHT22;334;48.808;9.222;2023-04-01T01:01:10;11.70;1.00
702;DHT22;334;48.808;9.222;2023-04-01T01:02:13;11.60;1.00
702;DHT22;334;48.808;9.222;2023-04-01T01:03:17;11.60;1.00
702;DHT22;334;48.808;9.222;2023-04-01T01:04:25;11.60;1.00
702;DHT22;334;48.808;9.222;2023-04-01T01:05:47;11.60;1.00
702;DHT22;334;48.808;9.222;2023-04-01T01:08:42;11.60;1.00
702;DHT22;334;48.808;9.222;2023-04-01T01:11:08;11.60;1.00
702;DHT22;334;48.808;9.222;2023-04-01T01:12:18;11.50;1.00
702;DHT22;334;48.808;9.222;2023-04-01T01:13:42;11.50;1.00
702;DHT22;334;48.808;9.222;2023-04-01T01:15:16;11.50;1.00
702;DHT22;334;48.808;9.222;2023-04-01T01:16:25;11.50;1.00
702;DHT22;334;48.808;9.222;2023-04-01T01:18:56;11.50;1.00
702;DHT22;334;48.808;9.222;2023-04-01T01:20:07;11.40;1.00
702;DHT22;334;48.808;9.222;2023-04-01T01:21:38;11.40;1.00
702;DHT22;334;48.808;9.222;2023-04-01T01:27:33;11.40;1.00
702;DHT22;334;48.808;9.222;2023-04-01T01:30:25;11.40;1.00
702;DHT22;334;48.808;9.222;2023-04-01T01:31:44;11.40;1.00
702;DHT22;334;48.808;9.222;2023-04-01T01:35:57;11.40;1.00
702;DHT22;334;48.808;9.222;2023-04-01T01:37:05;11.30;1.00
702;DHT22;334;48.808;9.222;2023-04-01T01:38:16;11.30;1.00
702;DHT22;334;48.808;9.222;2023-04-01T01:39:20;11.30;1.00
702;DHT22;334;48.808;9.222;2023-04-01T01:40:29;11.30;1.00
702;DHT22;334;48.808;9.222;2023-04-01T01:41:35;11.30;1.00
702;DHT22;334;48.808;9.222;2023-04-01T01:42:40;11.40;1.00
702;DHT22;334;48.808;9.222;2023-04-01T01:43:48;11.40;1.00
702;DHT22;334;48.808;9.222;2023-04-01T01:44:52;11.40;1.00
702;DHT22;334;48.808;9.222;2023-04-01T01:45:58;11.30;1.00
702;DHT22;334;48.808;9.222;2023-04-01T01:47:01;11.30;1.00
702;DHT22;334;48.808;9.222;2023-04-01T01:48:05;11.40;1.00
702;DHT22;334;48.808;9.222;2023-04-01T01:49:10;11.30;1.00
702;DHT22;334;48.808;9.222;2023-04-01T01:50:14;11.40;1.00
702;DHT22;334;48.808;9.222;2023-04-01T01:51:18;11.40;1.00
702;DHT22;334;48.808;9.222;2023-04-01T01:52:21;11.40;1.00
702;DHT22;334;48.808;9.222;2023-04-01T01:53:24;11.40;1.00
702;DHT22;334;48.808;9.222;2023-04-01T01:54:25;11.40;1.00
702;DHT22;334;48.808;9.222;2023-04-01T01:55:36;11.40;1.00
702;DHT22;334;48.808;9.222;2023-04-01T01:56:39;11.40;1.00
702;DHT22;334;48.808;9.222;2023-04-01T01:57:44;11.40;1.00
702;DHT22;334;48.808;9.222;2023-04-01T01:58:51;11.40;1.00
702;DHT22;334;48.808;9.222;2023-04-01T02:00:03;11.40;1.00
702;DHT22;334;48.808;9.222;2023-04-01T02:01:27;11.50;1.00
702;DHT22;334;48.808;9.222;2023-04-01T02:02:31;11.40;1.00
702;DHT22;334;48.808;9.222;2023-04-01T02:03:36;11.40;1.00
702;DHT22;334;48.808;9.222;2023-04-01T02:04:40;11.40;1.00
702;DHT22;334;48.808;9.222;2023-04-01T02:05:44;11.40;1.00
702;DHT22;334;48.808;9.222;2023-04-01T02:06:53;11.40;1.00
702;DHT22;334;48.808;9.222;2023-04-01T02:08:14;11.40;1.00
702;DHT22;334;48.808;9.222;2023-04-01T02:09:17;11.50;1.00
702;DHT22;334;48.808;9.222;2023-04-01T02:10:20;11.50;1.00
702;DHT22;334;48.808;9.222;2023-04-01T02:11:33;11.50;1.00
702;DHT22;334;48.808;9.222;2023-04-01T02:12:38;11.50;1.00
702;DHT22;334;48.808;9.222;2023-04-01T02:13:48;11.50;1.00
702;DHT22;334;48.808;9.222;2023-04-01T02:15:03;11.50;1.00
702;DHT22;334;48.808;9.222;2023-04-01T02:16:20;11.40;1.00
702;DHT22;334;48.808;9.222;2023-04-01T02:17:26;11.40;1.00
702;DHT22;334;48.808;9.222;2023-04-01T02:18:29;11.40;1.00
702;DHT22;334;48.808;9.222;2023-04-01T02:20:54;11.40;1.00
702;DHT22;334;48.808;9.222;2023-04-01T02:22:00;11.40;1.00
702;DHT22;334;48.808;9.222;2023-04-01T02:23:03;11.40;1.00
702;DHT22;334;48.808;9.222;2023-04-01T02:24:09;11.40;1.00
702;DHT22;334;48.808;9.222;2023-04-01T02:25:18;11.40;1.00
702;DHT22;334;48.808;9.222;2023-04-01T02:26:20;11.40;1.00
702;DHT22;334;48.808;9.222;2023-04-01T02:27:23;11.40;1.00
702;DHT22;334;48.808;9.222;2023-04-01T02:28:27;11.40;1.00
702;DHT22;334;48.808;9.222;2023-04-01T02:29:32;11.40;1.00
702;DHT22;334;48.808;9.222;2023-04-01T02:30:35;11.30;1.00
702;DHT22;334;48.808;9.222;2023-04-01T02:31:38;11.30;1.00
702;DHT22;334;48.808;9.222;2023-04-01T02:32:41;11.40;1.00
702;DHT22;334;48.808;9.222;2023-04-01T02:33:46;11.40;1.00
702;DHT22;334;48.808;9.222;2023-04-01T02:34:56;11.30;1.00
702;DHT22;334;48.808;9.222;2023-04-01T02:35:59;11.40;1.00
702;DHT22;334;48.808;9.222;2023-04-01T02:37:02;11.30;1.00
702;DHT22;334;48.808;9.222;2023-04-01T02:38:05;11.40;1.00
702;DHT22;334;48.808;9.222;2023-04-01T02:39:08;11.40;1.00
702;DHT22;334;48.808;9.222;2023-04-01T02:40:14;11.30;1.00
702;DHT22;334;48.808;9.222;2023-04-01T02:41:17;11.30;1.00
702;DHT22;334;48.808;9.222;2023-04-01T02:42:20;11.30;1.00
702;DHT22;334;48.808;9.222;2023-04-01T02:43:22;11.30;1.00
702;DHT22;334;48.808;9.222;2023-04-01T02:44:24;11.30;1.00
702;DHT22;334;48.808;9.222;2023-04-01T02:45:27;11.30;1.00
702;DHT22;334;48.808;9.222;2023-04-01T02:46:30;11.30;1.00
702;DHT22;334;48.808;9.222;2023-04-01T02:47:32;11.30;1.00
702;DHT22;334;48.808;9.222;2023-04-01T02:48:34;11.30;1.00
702;DHT22;334;48.808;9.222;2023-04-01T02:49:36;11.30;1.00
702;DHT22;334;48.808;9.222;2023-04-01T02:50:38;11.30;1.00
702;DHT22;334;48.808;9.222;2023-04-01T02:51:40;11.20;1.00
702;DHT22;334;48.808;9.222;2023-04-01T02:52:42;11.30;1.00
702;DHT22;334;48.808;9.222;2023-04-01T02:53:44;11.30;1.00
702;DHT22;334;48.808;9.222;2023-04-01T02:54:46;11.30;1.00
702;DHT22;334;48.808;9.222;2023-04-01T02:55:48;11.30;1.00
702;DHT22;334;48.808;9.222;2023-04-01T02:56:53;11.30;1.00
702;DHT22;334;48.808;9.222;2023-04-01T02:57:56;11.30;1.00
702;DHT22;334;48.808;9.222;2023-04-01T02:58:58;11.30;1.00
702;DHT22;334;48.808;9.222;2023-04-01T02:59:59;11.20;1.00
702;DHT22;334;48.808;9.222;2023-04-01T03:01:02;11.20;1.00
702;DHT22;334;48.808;9.222;2023-04-01T03:02:04;11.30;1.00
702;DHT22;334;48.808;9.222;2023-04-01T03:03:06;11.30;1.00
702;DHT22;334;48.808;9.222;2023-04-01T03:04:09;11.30;1.00
702;DHT22;334;48.808;9.222;2023-04-01T03:05:11;11.20;1.00
702;DHT22;334;48.808;9.222;2023-04-01T03:06:15;11.20;1.00
702;DHT22;334;48.808;9.222;2023-04-01T03:07:18;11.20;1.00
702;DHT22;334;48.808;9.222;2023-04-01T03:08:20;11.20;1.00
702;DHT22;334;48.808;9.222;2023-04-01T03:09:22;11.20;1.00
702;DHT22;334;48.808;9.222;2023-04-01T03:10:24;11.20;1.00
702;DHT22;334;48.808;9.222;2023-04-01T03:11:27;11.20;1.00
702;DHT22;334;48.808;9.222;2023-04-01T03:12:30;11.20;1.00
702;DHT22;334;48.808;9.222;2023-04-01T03:13:33;11.20;1.00
702;DHT22;334;48.808;9.222;2023-04-01T03:14:37;11.20;1.00
702;DHT22;334;48.808;9.222;2023-04-01T03:15:38;11.20;1.00
702;DHT22;334;48.808;9.222;2023-04-01T03:16:41;11.20;1.00
702;DHT22;334;48.808;9.222;2023-04-01T03:17:43;11.20;1.00
702;DHT22;334;48.808;9.222;2023-04-01T03:18:48;11.20;1.00
702;DHT22;334;48.808;9.222;2023-04-01T03:19:52;11.20;1.00
702;DHT22;334;48.808;9.222;2023-04-01T03:20:55;11.10;1.00
702;DHT22;334;48.808;9.222;2023-04-01T03:22:01;11.20;1.00
702;DHT22;334;48.808;9.222;2023-04-01T03:23:02;11.10;1.00
702;DHT22;334;48.808;9.222;2023-04-01T03:24:05;11.10;1.00
702;DHT22;334;48.808;9.222;2023-04-01T03:25:11;11.10;1.00
702;DHT22;334;48.808;9.222;2023-04-01T03:26:13;11.10;1.00
702;DHT22;334;48.808;9.222;2023-04-01T03:27:17;11.10;1.00
702;DHT22;334;48.808;9.222;2023-04-01T03:28:21;11.10;1.00
702;DHT22;334;48.808;9.222;2023-04-01T03:29:23;11.10;1.00
702;DHT22;334;48.808;9.222;2023-04-01T03:30:26;11.00;1.00
702;DHT22;334;48.808;9.222;2023-04-01T03:31:28;11.10;1.00
702;DHT22;334;48.808;9.222;2023-04-01T03:32:30;11.10;1.00
702;DHT22;334;48.808;9.222;2023-04-01T03:33:32;11.00;1.00
702;DHT22;334;48.808;9.222;2023-04-01T03:34:34;11.10;1.00
702;DHT22;334;48.808;9.222;2023-04-01T03:35:36;11.00;1.00
702;DHT22;334;48.808;9.222;2023-04-01T03:36:38;11.00;1.00
702;DHT22;334;48.808;9.222;2023-04-01T03:37:40;11.00;1.00
702;DHT22;334;48.808;9.222;2023-04-01T03:38:42;11.00;1.00
702;DHT22;334;48.808;9.222;2023-04-01T03:39:45;11.00;1.00
702;DHT22;334;48.808;9.222;2023-04-01T03:40:47;11.00;1.00
702;DHT22;334;48.808;9.222;2023-04-01T03:41:49;11.00;1.00
702;DHT22;334;48.808;9.222;2023-04-01T03:42:51;10.90;1.00
702;DHT22;334;48.808;9.222;2023-04-01T03:43:53;11.00;1.00
702;DHT22;334;48.808;9.222;2023-04-01T03:44:55;11.00;1.00
702;DHT22;334;48.808;9.222;2023-04-01T03:45:57;11.00;1.00
702;DHT22;334;48.808;9.222;2023-04-01T03:47:00;11.00;1.00
702;DHT22;334;48.808;9.222;2023-04-01T03:48:02;11.00;1.00
702;DHT22;334;48.808;9.222;2023-04-01T03:49:07;11.00;1.00
702;DHT22;334;48.808;9.222;2023-04-01T03:50:12;11.00;1.00
702;DHT22;334;48.808;9.222;2023-04-01T03:51:14;11.00;1.00
702;DHT22;334;48.808;9.222;2023-04-01T03:52:16;11.00;1.00
702;DHT22;334;48.808;9.222;2023-04-01T03:53:18;11.00;1.00
702;DHT22;334;48.808;9.222;2023-04-01T03:54:20;11.00;1.00
702;DHT22;334;48.808;9.222;2023-04-01T03:55:22;11.00;1.00
702;DHT22;334;48.808;9.222;2023-04-01T03:56:24;11.00;1.00
702;DHT22;334;48.808;9.222;2023-04-01T03:57:26;11.00;1.00
702;DHT22;334;48.808;9.222;2023-04-01T03:58:28;11.00;1.00
702;DHT22;334;48.808;9.222;2023-04-01T03:59:30;11.00;1.00
702;DHT22;334;48.808;9.222;2023-04-01T04:00:32;11.00;1.00
702;DHT22;334;48.808;9.222;2023-04-01T04:01:34;11.00;1.00
702;DHT22;334;48.808;9.222;2023-04-01T04:02:36;11.00;1.00
702;DHT22;334;48.808;9.222;2023-04-01T04:03:38;11.00;1.00
702;DHT22;334;48.808;9.222;2023-04-01T04:04:40;11.00;1.00
702;DHT22;334;48.808;9.222;2023-04-01T04:05:49;10.90;1.00
702;DHT22;334;48.808;9.222;2023-04-01T04:06:51;11.00;1.00
702;DHT22;334;48.808;9.222;2023-04-01T04:07:53;11.00;1.00
702;DHT22;334;48.808;9.222;2023-04-01T04:08:55;11.00;1.00
702;DHT22;334;48.808;9.222;2023-04-01T04:09:57;10.90;1.00
702;DHT22;334;48.808;9.222;2023-04-01T04:10:59;10.90;1.00
702;DHT22;334;48.808;9.222;2023-04-01T04:12:01;11.00;1.00
702;DHT22;334;48.808;9.222;2023-04-01T04:13:02;11.00;1.00
702;DHT22;334;48.808;9.222;2023-04-01T04:14:20;11.00;1.00
702;DHT22;334;48.808;9.222;2023-04-01T04:15:23;11.00;1.00
702;DHT22;334;48.808;9.222;2023-04-01T04:16:25;11.00;1.00
702;DHT22;334;48.808;9.222;2023-04-01T04:17:27;11.00;1.00
702;DHT22;334;48.808;9.222;2023-04-01T04:18:29;10.90;1.00
702;DHT22;334;48.808;9.222;2023-04-01T04:19:32;10.90;1.00
702;DHT22;334;48.808;9.222;2023-04-01T04:20:35;10.90;1.00
702;DHT22;334;48.808;9.222;2023-04-01T04:21:37;10.90;1.00
702;DHT22;334;48.808;9.222;2023-04-01T04:22:39;10.90;1.00
702;DHT22;334;48.808;9.222;2023-04-01T04:23:41;10.90;1.00
702;DHT22;334;48.808;9.222;2023-04-01T04:24:43;10.90;1.00
702;DHT22;334;48.808;9.222;2023-04-01T04:26:02;10.90;1.00
702;DHT22;334;48.808;9.222;2023-04-01T04:27:05;10.90;1.00
702;DHT22;334;48.808;9.222;2023-04-01T04:28:07;10.90;1.00
702;DHT22;334;48.808;9.222;2023-04-01T04:29:09;10.90;1.00
702;DHT22;334;48.808;9.222;2023-04-01T04:30:11;10.90;1.00
702;DHT22;334;48.808;9.222;2023-04-01T04:31:21;10.90;1.00
702;DHT22;334;48.808;9.222;2023-04-01T04:32:23;10.80;1.00
702;DHT22;334;48.808;9.222;2023-04-01T04:33:26;10.80;1.00
702;DHT22;334;48.808;9.222;2023-04-01T04:34:28;10.80;1.00
702;DHT22;334;48.808;9.222;2023-04-01T04:35:30;10.80;1.00
702;DHT22;334;48.808;9.222;2023-04-01T04:36:32;10.80;1.00
702;DHT22;334;48.808;9.222;2023-04-01T04:37:34;10.90;1.00
702;DHT22;334;48.808;9.222;2023-04-01T04:38:35;10.80;1.00
702;DHT22;334;48.808;9.222;2023-04-01T04:39:37;10.80;1.00
702;DHT22;334;48.808;9.222;2023-04-01T04:40:40;10.80;1.00
702;DHT22;334;48.808;9.222;2023-04-01T04:41:42;10.80;1.00
702;DHT22;334;48.808;9.222;2023-04-01T04:42:44;10.80;1.00
702;DHT22;334;48.808;9.222;2023-04-01T04:43:54;10.80;1.00
702;DHT22;334;48.808;9.222;2023-04-01T04:44:56;10.80;1.00
702;DHT22;334;48.808;9.222;2023-04-01T04:45:58;10.80;1.00
702;DHT22;334;48.808;9.222;2023-04-01T04:47:00;10.80;1.00
702;DHT22;334;48.808;9.222;2023-04-01T04:48:02;10.70;1.00
702;DHT22;334;48.808;9.222;2023-04-01T04:49:04;10.80;1.00
702;DHT22;334;48.808;9.222;2023-04-01T04:50:08;10.80;1.00
702;DHT22;334;48.808;9.222;2023-04-01T04:51:19;10.70;1.00
702;DHT22;334;48.808;9.222;2023-04-01T04:52:23;10.70;1.00
702;DHT22;334;48.808;9.222;2023-04-01T04:53:25;10.70;1.00
702;DHT22;334;48.808;9.222;2023-04-01T04:54:27;10.70;1.00
702;DHT22;334;48.808;9.222;2023-04-01T04:55:29;10.60;1.00
702;DHT22;334;48.808;9.222;2023-04-01T04:56:32;10.60;1.00
702;DHT22;334;48.808;9.222;2023-04-01T04:57:34;10.60;1.00
702;DHT22;334;48.808;9.222;2023-04-01T04:58:36;10.50;1.00
702;DHT22;334;48.808;9.222;2023-04-01T04:59:39;10.50;1.00
702;DHT22;334;48.808;9.222;2023-04-01T05:00:41;10.50;1.00
702;DHT22;334;48.808;9.222;2023-04-01T05:01:43;10.50;1.00
702;DHT22;334;48.808;9.222;2023-04-01T05:02:44;10.50;1.00
702;DHT22;334;48.808;9.222;2023-04-01T05:03:46;10.60;1.00
702;DHT22;334;48.808;9.222;2023-04-01T05:04:48;10.60;1.00
702;DHT22;334;48.808;9.222;2023-04-01T05:05:52;10.60;1.00
702;DHT22;334;48.808;9.222;2023-04-01T05:06:54;10.50;1.00
702;DHT22;334;48.808;9.222;2023-04-01T05:07:57;10.60;1.00
702;DHT22;334;48.808;9.222;2023-04-01T05:08:58;10.50;1.00
702;DHT22;334;48.808;9.222;2023-04-01T05:10:01;10.60;1.00
702;DHT22;334;48.808;9.222;2023-04-01T05:11:03;10.50;1.00
702;DHT22;334;48.808;9.222;2023-04-01T05:12:05;10.50;1.00
702;DHT22;334;48.808;9.222;2023-04-01T05:13:07;10.50;1.00
702;DHT22;334;48.808;9.222;2023-04-01T05:14:18;10.50;1.00
702;DHT22;334;48.808;9.222;2023-04-01T05:15:20;10.50;1.00
702;DHT22;334;48.808;9.222;2023-04-01T05:16:22;10.50;1.00
702;DHT22;334;48.808;9.222;2023-04-01T05:17:24;10.50;1.00
702;DHT22;334;48.808;9.222;2023-04-01T05:18:26;10.40;1.00
702;DHT22;334;48.808;9.222;2023-04-01T05:19:28;10.50;1.00
702;DHT22;334;48.808;9.222;2023-04-01T05:20:30;10.50;1.00
702;DHT22;334;48.808;9.222;2023-04-01T05:21:32;10.50;1.00
702;DHT22;334;48.808;9.222;2023-04-01T05:22:34;10.50;1.00
702;DHT22;334;48.808;9.222;2023-04-01T05:23:36;10.50;1.00
702;DHT22;334;48.808;9.222;2023-04-01T05:24:38;10.50;1.00
702;DHT22;334;48.808;9.222;2023-04-01T05:25:41;10.50;1.00
702;DHT22;334;48.808;9.222;2023-04-01T05:26:43;10.50;1.00
702;DHT22;334;48.808;9.222;2023-04-01T05:27:45;10.50;1.00
702;DHT22;334;48.808;9.222;2023-04-01T05:28:47;10.50;1.00
702;DHT22;334;48.808;9.222;2023-04-01T05:29:48;10.50;1.00
702;DHT22;334;48.808;9.222;2023-04-01T05:30:51;10.60;1.00
702;DHT22;334;48.808;9.222;2023-04-01T05:31:53;10.50;1.00
702;DHT22;334;48.808;9.222;2023-04-01T05:32:55;10.50;1.00
702;DHT22;334;48.808;9.222;2023-04-01T05:33:57;10.50;1.00
702;DHT22;334;48.808;9.222;2023-04-01T05:34:59;10.50;1.00
702;DHT22;334;48.808;9.222;2023-04-01T05:36:12;10.50;1.00
702;DHT22;334;48.808;9.222;2023-04-01T05:37:14;10.60;1.00
702;DHT22;334;48.808;9.222;2023-04-01T05:38:16;10.50;1.00
702;DHT22;334;48.808;9.222;2023-04-01T05:39:18;10.60;1.00
702;DHT22;334;48.808;9.222;2023-04-01T05:40:20;10.60;1.00
702;DHT22;334;48.808;9.222;2023-04-01T05:41:22;10.60;1.00
702;DHT22;334;48.808;9.222;2023-04-01T05:42:24;10.70;1.00
702;DHT22;334;48.808;9.222;2023-04-01T05:43:26;10.70;1.00
702;DHT22;334;48.808;9.222;2023-04-01T05:44:28;10.70;1.00
702;DHT22;334;48.808;9.222;2023-04-01T05:45:30;10.70;1.00
702;DHT22;334;48.808;9.222;2023-04-01T05:46:32;10.70;1.00
702;DHT22;334;48.808;9.222;2023-04-01T05:47:36;10.70;1.00
702;DHT22;334;48.808;9.222;2023-04-01T05:48:38;10.80;1.00
702;DHT22;334;48.808;9.222;2023-04-01T05:49:39;10.80;1.00
702;DHT22;334;48.808;9.222;2023-04-01T05:50:42;10.80;1.00
702;DHT22;334;48.808;9.222;2023-04-01T05:51:44;10.90;1.00
702;DHT22;334;48.808;9.222;2023-04-01T05:52:46;10.90;1.00
702;DHT22;334;48.808;9.222;2023-04-01T05:53:48;10.90;1.00
702;DHT22;334;48.808;9.222;2023-04-01T05:54:49;10.90;1.00
702;DHT22;334;48.808;9.222;2023-04-01T05:55:52;11.00;1.00
702;DHT22;334;48.808;9.222;2023-04-01T05:56:54;11.00;1.00
702;DHT22;334;48.808;9.222;2023-04-01T05:57:56;11.00;1.00
702;DHT22;334;48.808;9.222;2023-04-01T05:58:58;11.10;1.00
702;DHT22;334;48.808;9.222;2023-04-01T05:59:59;11.10;1.00
702;DHT22;334;48.808;9.222;2023-04-01T06:01:06;11.10;1.00
702;DHT22;334;48.808;9.222;2023-04-01T06:02:17;11.10;1.00
702;DHT22;334;48.808;9.222;2023-04-01T06:03:19;11.10;1.00
702;DHT22;334;48.808;9.222;2023-04-01T06:04:21;11.20;1.00
702;DHT22;334;48.808;9.222;2023-04-01T06:05:27;11.20;1.00
702;DHT22;334;48.808;9.222;2023-04-01T06:06:31;11.20;1.00
702;DHT22;334;48.808;9.222;2023-04-01T06:07:35;11.20;1.00
702;DHT22;334;48.808;9.222;2023-04-01T06:08:37;11.20;1.00
702;DHT22;334;48.808;9.222;2023-04-01T06:09:39;11.20;1.00
702;DHT22;334;48.808;9.222;2023-04-01T06:12:29;11.30;1.00
702;DHT22;334;48.808;9.222;2023-04-01T06:15:33;11.30;1.00
702;DHT22;334;48.808;9.222;2023-04-01T06:21:55;11.20;1.00
702;DHT22;334;48.808;9.222;2023-04-01T06:23:09;11.20;1.00
702;DHT22;334;48.808;9.222;2023-04-01T06:24:49;11.30;1.00
702;DHT22;334;48.808;9.222;2023-04-01T06:26:16;11.30;1.00
702;DHT22;334;48.808;9.222;2023-04-01T06:29:58;11.30;1.00
702;DHT22;334;48.808;9.222;2023-04-01T06:31:20;11.30;1.00
702;DHT22;334;48.808;9.222;2023-04-01T06:32:41;11.40;1.00
702;DHT22;334;48.808;9.222;2023-04-01T06:36:18;11.40;1.00
702;DHT22;334;48.808;9.222;2023-04-01T06:45:28;11.50;1.00
702;DHT22;334;48.808;9.222;2023-04-01T06:46:45;11.50;1.00
702;DHT22;334;48.808;9.222;2023-04-01T06:55:38;11.40;1.00
702;DHT22;334;48.808;9.222;2023-04-01T06:56:42;11.40;1.00
702;DHT22;334;48.808;9.222;2023-04-01T06:57:51;11.40;1.00
702;DHT22;334;48.808;9.222;2023-04-01T06:59:21;11.40;1.00
702;DHT22;334;48.808;9.222;2023-04-01T07:00:27;11.40;1.00
702;DHT22;334;48.808;9.222;2023-04-01T07:01:37;11.40;1.00
702;DHT22;334;48.808;9.222;2023-04-01T07:02:50;11.40;1.00
702;DHT22;334;48.808;9.222;2023-04-01T07:04:01;11.40;1.00
702;DHT22;334;48.808;9.222;2023-04-01T07:05:07;11.40;1.00
702;DHT22;334;48.808;9.222;2023-04-01T07:06:16;11.40;1.00
702;DHT22;334;48.808;9.222;2023-04-01T07:07:33;11.40;1.00
702;DHT22;334;48.808;9.222;2023-04-01T07:08:40;11.50;1.00
702;DHT22;334;48.808;9.222;2023-04-01T07:09:52;11.40;1.00
702;DHT22;334;48.808;9.222;2023-04-01T07:11:10;11.40;1.00
702;DHT22;334;48.808;9.222;2023-04-01T07:12:26;11.50;1.00
702;DHT22;334;48.808;9.222;2023-04-01T07:13:39;11.50;1.00
702;DHT22;334;48.808;9.222;2023-04-01T07:14:43;11.50;1.00
702;DHT22;334;48.808;9.222;2023-04-01T07:17:20;11.50;1.00
702;DHT22;334;48.808;9.222;2023-04-01T07:18:39;11.50;1.00
702;DHT22;334;48.808;9.222;2023-04-01T07:20:05;11.50;1.00
702;DHT22;334;48.808;9.222;2023-04-01T07:22:35;11.50;1.00
702;DHT22;334;48.808;9.222;2023-04-01T07:23:42;11.50;1.00
702;DHT22;334;48.808;9.222;2023-04-01T07:24:46;11.40;1.00
702;DHT22;334;48.808;9.222;2023-04-01T07:25:52;11.40;1.00
702;DHT22;334;48.808;9.222;2023-04-01T07:26:56;11.50;1.00
702;DHT22;334;48.808;9.222;2023-04-01T07:28:10;11.50;1.00
702;DHT22;334;48.808;9.222;2023-04-01T07:29:14;11.40;1.00
702;DHT22;334;48.808;9.222;2023-04-01T07:30:19;11.50;1.00
702;DHT22;334;48.808;9.222;2023-04-01T07:36:40;11.60;1.00
702;DHT22;334;48.808;9.222;2023-04-01T07:40:43;11.60;1.00
702;DHT22;334;48.808;9.222;2023-04-01T07:41:55;11.60;1.00
702;DHT22;334;48.808;9.222;2023-04-01T07:47:30;11.60;1.00
702;DHT22;334;48.808;9.222;2023-04-01T07:50:10;11.60;1.00
702;DHT22;334;48.808;9.222;2023-04-01T07:51:22;11.60;1.00
702;DHT22;334;48.808;9.222;2023-04-01T07:54:40;11.60;1.00
702;DHT22;334;48.808;9.222;2023-04-01T07:56:45;11.60;1.00
702;DHT22;334;48.808;9.222;2023-04-01T07:57:27;11.50;1.00
702;DHT22;334;48.808;9.222;2023-04-01T08:01:49;11.60;1.00
702;DHT22;334;48.808;9.222;2023-04-01T08:03:25;11.60;1.00
702;DHT22;334;48.808;9.222;2023-04-01T08:04:59;11.60;1.00
702;DHT22;334;48.808;9.222;2023-04-01T08:07:21;11.80;1.00
702;DHT22;334;48.808;9.222;2023-04-01T08:10:36;11.90;1.00
702;DHT22;334;48.808;9.222;2023-04-01T08:14:52;11.90;1.00
702;DHT22;334;48.808;9.222;2023-04-01T08:20:02;11.80;1.00
702;DHT22;334;48.808;9.222;2023-04-01T08:22:22;11.90;1.00
702;DHT22;334;48.808;9.222;2023-04-01T08:23:30;11.90;1.00
702;DHT22;334;48.808;9.222;2023-04-01T08:24:42;11.90;1.00
702;DHT22;334;48.808;9.222;2023-04-01T08:27:03;11.90;1.00
702;DHT22;334;48.808;9.222;2023-04-01T08:28:38;11.90;1.00
702;DHT22;334;48.808;9.222;2023-04-01T08:29:50;11.90;1.00
702;DHT22;334;48.808;9.222;2023-04-01T08:31:00;11.80;1.00
702;DHT22;334;48.808;9.222;2023-04-01T08:32:13;11.90;1.00
702;DHT22;334;48.808;9.222;2023-04-01T08:33:27;11.90;1.00
702;DHT22;334;48.808;9.222;2023-04-01T08:34:40;11.90;1.00
702;DHT22;334;48.808;9.222;2023-04-01T08:35:51;12.00;1.00
702;DHT22;334;48.808;9.222;2023-04-01T08:37:15;12.00;1.00
702;DHT22;334;48.808;9.222;2023-04-01T08:38:24;12.00;1.00
702;DHT22;334;48.808;9.222;2023-04-01T08:39:42;12.10;1.00
702;DHT22;334;48.808;9.222;2023-04-01T08:40:58;12.10;1.00
702;DHT22;334;48.808;9.222;2023-04-01T08:44:59;12.00;1.00
702;DHT22;334;48.808;9.222;2023-04-01T08:47:42;11.90;1.00
702;DHT22;334;48.808;9.222;2023-04-01T08:49:06;11.80;1.00
702;DHT22;334;48.808;9.222;2023-04-01T08:57:43;11.50;1.00
702;DHT22;334;48.808;9.222;2023-04-01T09:00:37;11.50;1.00
702;DHT22;334;48.808;9.222;2023-04-01T09:06:40;11.50;1.00
702;DHT22;334;48.808;9.222;2023-04-01T09:09:18;11.40;1.00
702;DHT22;334;48.808;9.222;2023-04-01T09:10:54;11.40;1.00
702;DHT22;334;48.808;9.222;2023-04-01T09:13:24;11.50;1.00